sensor_id;sensor_type;location;lat;lon;timestamp;pressure;altitude;pressure_sealevel;temperature;humidity
5952;BME280;3001;42.622;23.194;2023-08-20T00:00:12;91647.66;;;23.65;75.74
5952;BME280;3001;42.622;23.194;2023-08-20T00:02:42;91644.69;;;23.80;75.35
5952;BME280;3001;42.622;23.194;2023-08-20T00:05:09;91640.25;;;23.91;75.50
5952;BME280;3001;42.622;23.194;2023-08-20T00:07:36;91639.75;;;23.79;75.98
5952;BME280;3001;42.622;23.194;2023-08-20T00:10:04;91646.13;;;23.67;76.48
5952;BME280;3001;42.622;23.194;2023-08-20T00:12:31;91648.06;;;23.74;76.32
5952;BME280;3001;42.622;23.194;2023-08-20T00:15:01;91620.34;;;23.64;76.32
5952;BME280;3001;42.622;23.194;2023-08-20T00:17:31;91636.84;;;23.98;75.84
5952;BME280;3001;42.622;23.194;2023-08-20T00:20:00;91631.16;;;23.92;75.57
5952;BME280;3001;42.622;23.194;2023-08-20T00:22:29;91647.50;;;24.05;75.24
5952;BME280;3001;42.622;23.194;2023-08-20T00:24:57;91636.59;;;24.31;74.52
5952;BME280;3001;42.622;23.194;2023-08-20T00:27:24;91647.53;;;24.15;74.54
5952;BME280;3001;42.622;23.194;2023-08-20T00:29:50;91642.91;;;23.98;75.43
5952;BME280;3001;42.622;23.194;2023-08-20T00:32:17;91641.41;;;24.01;74.98
5952;BME280;3001;42.622;23.194;2023-08-20T00:34:44;91648.31;;;24.19;74.61
5952;BME280;3001;42.622;23.194;2023-08-20T00:37:12;91645.97;;;24.04;74.76
5952;BME280;3001;42.622;23.194;2023-08-20T00:39:39;91646.75;;;24.08;73.96
5952;BME280;3001;42.622;23.194;2023-08-20T00:42:05;91641.84;;;24.17;74.58
5952;BME280;3001;42.622;23.194;2023-08-20T00:44:33;91639.28;;;24.41;74.33
5952;BME280;3001;42.622;23.194;2023-08-20T00:47:00;91647.22;;;24.31;74.91
5952;BME280;3001;42.622;23.194;2023-08-20T00:49:27;91652.16;;;24.32;74.54
5952;BME280;3001;42.622;23.194;2023-08-20T00:51:54;91648.38;;;24.33;74.10
5952;BME280;3001;42.622;23.194;2023-08-20T00:54:22;91652.50;;;24.27;73.35
5952;BME280;3001;42.622;23.194;2023-08-20T00:56:50;91655.22;;;24.45;72.77
5952;BME280;3001;42.622;23.194;2023-08-20T00:59:17;91650.72;;;24.52;71.95
5952;BME280;3001;42.622;23.194;2023-08-20T01:01:44;91649.91;;;24.48;71.65
5952;BME280;3001;42.622;23.194;2023-08-20T01:04:11;91657.81;;;24.24;71.89
5952;BME280;3001;42.622;23.194;2023-08-20T01:06:54;91650.56;;;24.10;71.89
5952;BME280;3001;42.622;23.194;2023-08-20T01:09:37;91649.75;;;23.99;71.19
5952;BME280;3001;42.622;23.194;2023-08-20T01:12:09;91647.41;;;23.87;71.64
5952;BME280;3001;42.622;23.194;2023-08-20T01:14:36;91643.16;;;23.72;72.50
5952;BME280;3001;42.622;23.194;2023-08-20T01:17:03;91642.50;;;23.93;72.56
5952;BME280;3001;42.622;23.194;2023-08-20T01:19:30;91642.91;;;23.91;71.51
5952;BME280;3001;42.622;23.194;2023-08-20T01:22:10;91645.94;;;23.97;71.62
5952;BME280;3001;42.622;23.194;2023-08-20T01:24:47;91651.69;;;24.13;71.64
5952;BME280;3001;42.622;23.194;2023-08-20T01:27:28;91640.56;;;23.86;72.05
5952;BME280;3001;42.622;23.194;2023-08-20T01:29:58;91639.91;;;24.07;71.54
5952;BME280;3001;42.622;23.194;2023-08-20T01:32:25;91639.16;;;24.10;71.87
5952;BME280;3001;42.622;23.194;2023-08-20T01:34:52;91639.19;;;24.13;72.17
5952;BME280;3001;42.622;23.194;2023-08-20T01:37:19;91634.28;;;24.15;71.70
5952;BME280;3001;42.622;23.194;2023-08-20T01:39:46;91640.72;;;24.18;71.18
5952;BME280;3001;42.622;23.194;2023-08-20T01:42:12;91636.22;;;24.36;70.89
5952;BME280;3001;42.622;23.194;2023-08-20T01:44:39;91638.47;;;24.23;70.55
5952;BME280;3001;42.622;23.194;2023-08-20T01:47:07;91650.59;;;24.21;69.31
5952;BME280;3001;42.622;23.194;2023-08-20T01:49:34;91647.47;;;23.94;70.58
5952;BME280;3001;42.622;23.194;2023-08-20T01:52:00;91651.66;;;24.02;70.52
5952;BME280;3001;42.622;23.194;2023-08-20T01:54:27;91640.66;;;24.04;70.77
5952;BME280;3001;42.622;23.194;2023-08-20T01:56:54;91630.75;;;23.90;71.09
5952;BME280;3001;42.622;23.194;2023-08-20T01:59:22;91625.84;;;23.92;70.72
5952;BME280;3001;42.622;23.194;2023-08-20T02:01:49;91620.88;;;23.91;70.87
5952;BME280;3001;42.622;23.194;2023-08-20T02:04:17;91620.09;;;23.83;71.53
5952;BME280;3001;42.622;23.194;2023-08-20T02:06:43;91618.66;;;24.03;70.00
5952;BME280;3001;42.622;23.194;2023-08-20T02:09:10;91618.00;;;24.31;69.17
5952;BME280;3001;42.622;23.194;2023-08-20T02:11:37;91619.50;;;24.21;68.18
5952;BME280;3001;42.622;23.194;2023-08-20T02:14:03;91613.41;;;24.17;68.72
5952;BME280;3001;42.622;23.194;2023-08-20T02:16:30;91613.47;;;24.31;68.44
5952;BME280;3001;42.622;23.194;2023-08-20T02:18:57;91612.25;;;24.15;69.19
5952;BME280;3001;42.622;23.194;2023-08-20T02:21:25;91614.53;;;24.13;68.85
5952;BME280;3001;42.622;23.194;2023-08-20T02:23:51;91617.91;;;23.99;70.05
5952;BME280;3001;42.622;23.194;2023-08-20T02:26:18;91626.59;;;23.96;69.60
5952;BME280;3001;42.622;23.194;2023-08-20T02:28:45;91622.84;;;24.04;69.53
5952;BME280;3001;42.622;23.194;2023-08-20T02:31:11;91621.53;;;23.70;70.83
5952;BME280;3001;42.622;23.194;2023-08-20T02:33:38;91620.69;;;23.56;nan
5952;BME280;3001;42.622;23.194;2023-08-20T02:36:05;91607.06;;;23.57;71.28
5952;BME280;3001;42.622;23.194;2023-08-20T02:38:33;91620.44;;;23.78;70.90
5952;BME280;3001;42.622;23.194;2023-08-20T02:41:00;91623.78;;;23.65;71.33
5952;BME280;3001;42.622;23.194;2023-08-20T02:43:28;91617.69;;;23.61;71.01
5952;BME280;3001;42.622;23.194;2023-08-20T02:45:55;91613.84;;;23.55;71.53
5952;BME280;3001;42.622;23.194;2023-08-20T02:48:21;91597.13;;;23.44;72.27
5952;BME280;3001;42.622;23.194;2023-08-20T02:50:52;91613.75;;;23.37;72.57
5952;BME280;3001;42.622;23.194;2023-08-20T02:53:18;91604.53;;;23.17;73.06
5952;BME280;3001;42.622;23.194;2023-08-20T02:55:46;91613.81;;;23.48;72.09
5952;BME280;3001;42.622;23.194;2023-08-20T02:58:13;91630.03;;;23.36;72.83
5952;BME280;3001;42.622;23.194;2023-08-20T03:00:41;91628.13;;;23.29;72.84
5952;BME280;3001;42.622;23.194;2023-08-20T03:03:08;91633.75;;;23.21;73.33
5952;BME280;3001;42.622;23.194;2023-08-20T03:05:35;91637.13;;;23.21;73.80
5952;BME280;3001;42.622;23.194;2023-08-20T03:08:02;91629.97;;;23.25;74.05
5952;BME280;3001;42.622;23.194;2023-08-20T03:10:30;91623.53;;;23.23;74.15
5952;BME280;3001;42.622;23.194;2023-08-20T03:12:58;91627.00;;;23.34;72.97
5952;BME280;3001;42.622;23.194;2023-08-20T03:15:26;91622.47;;;23.38;73.21
5952;BME280;3001;42.622;23.194;2023-08-20T03:17:53;91623.94;;;23.28;73.13
5952;BME280;3001;42.622;23.194;2023-08-20T03:20:19;91621.25;;;23.25;73.59
5952;BME280;3001;42.622;23.194;2023-08-20T03:22:46;91603.97;;;22.94;74.33
5952;BME280;3001;42.622;23.194;2023-08-20T03:25:13;91629.88;;;23.11;73.49
5952;BME280;3001;42.622;23.194;2023-08-20T03:27:40;91620.88;;;23.23;73.55
5952;BME280;3001;42.622;23.194;2023-08-20T03:30:08;91620.38;;;23.10;74.26
5952;BME280;3001;42.622;23.194;2023-08-20T03:32:35;91623.47;;;23.16;74.41
5952;BME280;3001;42.622;23.194;2023-08-20T03:35:02;91626.19;;;23.26;74.16
5952;BME280;3001;42.622;23.194;2023-08-20T03:37:29;91614.44;;;23.24;73.83
5952;BME280;3001;42.622;23.194;2023-08-20T03:39:56;91619.50;;;23.43;73.61
5952;BME280;3001;42.622;23.194;2023-08-20T03:42:22;91618.41;;;23.54;72.66
5952;BME280;3001;42.622;23.194;2023-08-20T03:44:49;91620.09;;;23.83;71.68
5952;BME280;3001;42.622;23.194;2023-08-20T03:47:17;91626.19;;;23.84;71.65
5952;BME280;3001;42.622;23.194;2023-08-20T03:49:46;91615.50;;;23.80;72.00
5952;BME280;3001;42.622;23.194;2023-08-20T03:52:12;91622.63;;;23.59;72.45
5952;BME280;3001;42.622;23.194;2023-08-20T03:54:39;91616.84;;;23.43;72.54
5952;BME280;3001;42.622;23.194;2023-08-20T03:57:05;91617.25;;;23.52;72.89
5952;BME280;3001;42.622;23.194;2023-08-20T03:59:32;91608.06;;;23.35;73.08
5952;BME280;3001;42.622;23.194;2023-08-20T04:01:59;91610.28;;;23.26;73.51
5952;BME280;3001;42.622;23.194;2023-08-20T04:04:27;91611.00;;;23.20;73.94
5952;BME280;3001;42.622;23.194;2023-08-20T04:06:53;91614.97;;;22.96;75.08
5952;BME280;3001;42.622;23.194;2023-08-20T04:09:20;91614.88;;;22.86;75.46
5952;BME280;3001;42.622;23.194;2023-08-20T04:11:47;91614.88;;;22.86;76.21
5952;BME280;3001;42.622;23.194;2023-08-20T04:14:13;91613.56;;;22.66;77.45
5952;BME280;3001;42.622;23.194;2023-08-20T04:16:40;91616.63;;;22.68;77.33
5952;BME280;3001;42.622;23.194;2023-08-20T04:19:07;91614.72;;;22.65;77.54
5952;BME280;3001;42.622;23.194;2023-08-20T04:21:35;91627.25;;;22.72;77.90
5952;BME280;3001;42.622;23.194;2023-08-20T04:24:02;91619.13;;;22.54;78.63
5952;BME280;3001;42.622;23.194;2023-08-20T04:26:28;91618.09;;;22.62;77.87
5952;BME280;3001;42.622;23.194;2023-08-20T04:28:55;91615.63;;;22.83;77.67
5952;BME280;3001;42.622;23.194;2023-08-20T04:31:22;91616.91;;;22.60;78.03
5952;BME280;3001;42.622;23.194;2023-08-20T04:33:48;91624.00;;;22.89;77.83
5952;BME280;3001;42.622;23.194;2023-08-20T04:36:15;91608.50;;;22.91;77.38
5952;BME280;3001;42.622;23.194;2023-08-20T04:38:43;91607.66;;;23.30;76.23
5952;BME280;3001;42.622;23.194;2023-08-20T04:41:10;91606.94;;;23.36;75.70
5952;BME280;3001;42.622;23.194;2023-08-20T04:43:36;91604.31;;;23.43;74.97
5952;BME280;3001;42.622;23.194;2023-08-20T04:46:03;91600.47;;;23.30;76.01
5952;BME280;3001;42.622;23.194;2023-08-20T04:48:30;91612.53;;;23.21;76.41
5952;BME280;3001;42.622;23.194;2023-08-20T04:50:56;91601.94;;;23.21;76.28
5952;BME280;3001;42.622;23.194;2023-08-20T04:53:24;91600.53;;;23.44;75.12
5952;BME280;3001;42.622;23.194;2023-08-20T04:55:52;91608.97;;;23.60;75.03
5952;BME280;3001;42.622;23.194;2023-08-20T04:58:18;91614.09;;;23.93;74.19
5952;BME280;3001;42.622;23.194;2023-08-20T05:00:45;91613.69;;;23.88;74.54
5952;BME280;3001;42.622;23.194;2023-08-20T05:03:12;91615.75;;;23.54;76.33
5952;BME280;3001;42.622;23.194;2023-08-20T05:05:38;91618.03;;;23.56;75.49
5952;BME280;3001;42.622;23.194;2023-08-20T05:08:05;91625.84;;;23.99;74.91
5952;BME280;3001;42.622;23.194;2023-08-20T05:10:35;91631.97;;;24.10;74.96
5952;BME280;3001;42.622;23.194;2023-08-20T05:13:03;91636.06;;;23.90;75.18
5952;BME280;3001;42.622;23.194;2023-08-20T05:15:30;91628.66;;;23.59;76.81
5952;BME280;3001;42.622;23.194;2023-08-20T05:17:57;91630.75;;;23.90;76.24
5952;BME280;3001;42.622;23.194;2023-08-20T05:20:23;91631.22;;;24.17;75.32
5952;BME280;3001;42.622;23.194;2023-08-20T05:22:50;91634.72;;;24.45;74.56
5952;BME280;3001;42.622;23.194;2023-08-20T05:25:17;91630.53;;;24.34;74.63
5952;BME280;3001;42.622;23.194;2023-08-20T05:27:43;91637.72;;;24.37;74.64
5952;BME280;3001;42.622;23.194;2023-08-20T05:30:12;91642.38;;;24.54;73.75
5952;BME280;3001;42.622;23.194;2023-08-20T05:32:38;91632.84;;;24.46;72.81
5952;BME280;3001;42.622;23.194;2023-08-20T05:35:06;91628.34;;;24.53;72.37
5952;BME280;3001;42.622;23.194;2023-08-20T05:37:32;91634.78;;;24.66;71.86
5952;BME280;3001;42.622;23.194;2023-08-20T05:39:59;91637.44;;;24.66;70.94
5952;BME280;3001;42.622;23.194;2023-08-20T05:42:26;91634.81;;;24.80;71.27
5952;BME280;3001;42.622;23.194;2023-08-20T05:44:53;91632.19;;;24.94;70.75
5952;BME280;3001;42.622;23.194;2023-08-20T05:47:21;91634.06;;;25.00;71.75
5952;BME280;3001;42.622;23.194;2023-08-20T05:49:48;91625.34;;;24.89;71.17
5952;BME280;3001;42.622;23.194;2023-08-20T05:52:14;91630.66;;;25.14;70.81
5952;BME280;3001;42.622;23.194;2023-08-20T05:54:41;91634.47;;;25.02;70.93
5952;BME280;3001;42.622;23.194;2023-08-20T05:57:08;91633.72;;;25.05;71.99
5952;BME280;3001;42.622;23.194;2023-08-20T05:59:35;91624.94;;;25.12;71.07
5952;BME280;3001;42.622;23.194;2023-08-20T06:02:02;91633.34;;;25.14;71.23
5952;BME280;3001;42.622;23.194;2023-08-20T06:04:30;91619.69;;;25.33;69.50
5952;BME280;3001;42.622;23.194;2023-08-20T06:06:57;91636.38;;;25.30;69.36
5952;BME280;3001;42.622;23.194;2023-08-20T06:09:23;91637.53;;;25.36;69.78
5952;BME280;3001;42.622;23.194;2023-08-20T06:11:50;91643.59;;;25.40;70.19
5952;BME280;3001;42.622;23.194;2023-08-20T06:14:17;91642.06;;;25.21;71.14
5952;BME280;3001;42.622;23.194;2023-08-20T06:16:44;91642.84;;;25.36;70.28
5952;BME280;3001;42.622;23.194;2023-08-20T06:19:10;91643.56;;;25.47;69.69
5952;BME280;3001;42.622;23.194;2023-08-20T06:21:38;91651.19;;;25.59;69.85
5952;BME280;3001;42.622;23.194;2023-08-20T06:24:06;91657.22;;;25.98;69.39
5952;BME280;3001;42.622;23.194;2023-08-20T06:26:32;91642.78;;;25.88;68.95
5952;BME280;3001;42.622;23.194;2023-08-20T06:28:59;91645.81;;;25.94;69.38
5952;BME280;3001;42.622;23.194;2023-08-20T06:31:26;91653.00;;;26.00;68.46
5952;BME280;3001;42.622;23.194;2023-08-20T06:33:52;91648.47;;;25.94;69.51
5952;BME280;3001;42.622;23.194;2023-08-20T06:36:19;91653.41;;;25.99;68.62
5952;BME280;3001;42.622;23.194;2023-08-20T06:38:47;91645.41;;;25.92;67.96
5952;BME280;3001;42.622;23.194;2023-08-20T06:41:14;91652.59;;;26.16;68.02
5952;BME280;3001;42.622;23.194;2023-08-20T06:43:41;91652.91;;;26.28;67.94
5952;BME280;3001;42.622;23.194;2023-08-20T06:46:07;91659.75;;;26.22;68.66
5952;BME280;3001;42.622;23.194;2023-08-20T06:48:34;91657.06;;;26.40;68.66
5952;BME280;3001;42.622;23.194;2023-08-20T06:51:08;91642.94;;;26.53;67.54
5952;BME280;3001;42.622;23.194;2023-08-20T06:53:34;91656.19;;;26.64;66.99
5952;BME280;3001;42.622;23.194;2023-08-20T06:56:02;91653.53;;;26.64;65.88
5952;BME280;3001;42.622;23.194;2023-08-20T06:58:29;91651.16;;;26.79;64.56
5952;BME280;3001;42.622;23.194;2023-08-20T07:00:56;91649.13;;;26.97;65.01
5952;BME280;3001;42.622;23.194;2023-08-20T07:03:32;91650.44;;;26.75;64.99
5952;BME280;3001;42.622;23.194;2023-08-20T07:05:59;91647.91;;;27.09;64.11
5952;BME280;3001;42.622;23.194;2023-08-20T07:08:25;91640.00;;;26.91;63.53
5952;BME280;3001;42.622;23.194;2023-08-20T07:10:52;91650.09;;;27.28;62.39
5952;BME280;3001;42.622;23.194;2023-08-20T07:13:20;91641.38;;;27.20;62.53
5952;BME280;3001;42.622;23.194;2023-08-20T07:15:47;91659.44;;;27.46;61.04
5952;BME280;3001;42.622;23.194;2023-08-20T07:18:14;91656.25;;;27.62;60.26
5952;BME280;3001;42.622;23.194;2023-08-20T07:20:42;91655.91;;;27.56;60.42
5952;BME280;3001;42.622;23.194;2023-08-20T07:23:09;91657.81;;;27.59;58.44
5952;BME280;3001;42.622;23.194;2023-08-20T07:25:36;91657.69;;;27.73;57.89
5952;BME280;3001;42.622;23.194;2023-08-20T07:28:04;91662.25;;;27.76;56.83
5952;BME280;3001;42.622;23.194;2023-08-20T07:30:32;91667.34;;;28.01;55.25
5952;BME280;3001;42.622;23.194;2023-08-20T07:32:59;91663.63;;;28.28;55.28
5952;BME280;3001;42.622;23.194;2023-08-20T07:35:26;91656.75;;;28.31;55.23
5952;BME280;3001;42.622;23.194;2023-08-20T07:37:52;91667.63;;;28.47;55.50
5952;BME280;3001;42.622;23.194;2023-08-20T07:40:19;91666.69;;;28.30;55.18
5952;BME280;3001;42.622;23.194;2023-08-20T07:42:46;91673.16;;;28.33;54.95
5952;BME280;3001;42.622;23.194;2023-08-20T07:45:13;91670.38;;;28.40;55.11
5952;BME280;3001;42.622;23.194;2023-08-20T07:47:41;91675.50;;;28.24;55.78
5952;BME280;3001;42.622;23.194;2023-08-20T07:50:08;91676.53;;;28.37;55.65
5952;BME280;3001;42.622;23.194;2023-08-20T07:52:35;91678.72;;;28.45;54.45
5952;BME280;3001;42.622;23.194;2023-08-20T07:55:01;91678.06;;;28.34;56.17
5952;BME280;3001;42.622;23.194;2023-08-20T07:57:28;91684.88;;;28.42;56.15
5952;BME280;3001;42.622;23.194;2023-08-20T07:59:55;91674.88;;;28.50;54.58
5952;BME280;3001;42.622;23.194;2023-08-20T08:02:21;91683.28;;;28.48;53.60
5952;BME280;3001;42.622;23.194;2023-08-20T08:04:49;91677.25;;;28.41;53.83
5952;BME280;3001;42.622;23.194;2023-08-20T08:07:16;91681.53;;;28.35;54.96
5952;BME280;3001;42.622;23.194;2023-08-20T08:09:43;91678.75;;;28.42;55.63
5952;BME280;3001;42.622;23.194;2023-08-20T08:12:10;91671.50;;;28.72;55.06
5952;BME280;3001;42.622;23.194;2023-08-20T08:14:37;91679.13;;;28.73;53.95
5952;BME280;3001;42.622;23.194;2023-08-20T08:17:04;91683.94;;;28.89;54.13
5952;BME280;3001;42.622;23.194;2023-08-20T08:19:31;91687.84;;;29.07;53.41
5952;BME280;3001;42.622;23.194;2023-08-20T08:21:59;91693.72;;;28.99;52.14
5952;BME280;3001;42.622;23.194;2023-08-20T08:24:26;91694.44;;;29.03;51.83
5952;BME280;3001;42.622;23.194;2023-08-20T08:26:52;91691.75;;;29.03;52.25
5952;BME280;3001;42.622;23.194;2023-08-20T08:29:19;91691.25;;;28.81;50.97
5952;BME280;3001;42.622;23.194;2023-08-20T08:31:46;91694.03;;;28.74;53.43
5952;BME280;3001;42.622;23.194;2023-08-20T08:34:12;91694.53;;;28.62;54.19
5952;BME280;3001;42.622;23.194;2023-08-20T08:36:39;91692.34;;;28.54;52.13
5952;BME280;3001;42.622;23.194;2023-08-20T08:39:07;91680.63;;;28.45;52.92
5952;BME280;3001;42.622;23.194;2023-08-20T08:41:35;91685.94;;;28.78;52.10
5952;BME280;3001;42.622;23.194;2023-08-20T08:44:06;91694.13;;;28.97;51.10
5952;BME280;3001;42.622;23.194;2023-08-20T08:46:35;91689.38;;;29.08;49.92
5952;BME280;3001;42.622;23.194;2023-08-20T08:49:02;91684.44;;;29.33;48.95
5952;BME280;3001;42.622;23.194;2023-08-20T08:51:30;91700.84;;;29.09;49.67
5952;BME280;3001;42.622;23.194;2023-08-20T08:53:57;91709.63;;;29.09;49.38
5952;BME280;3001;42.622;23.194;2023-08-20T08:56:25;91713.78;;;29.14;49.67
5952;BME280;3001;42.622;23.194;2023-08-20T08:58:52;91708.41;;;29.14;48.90
5952;BME280;3001;42.622;23.194;2023-08-20T09:01:18;91709.75;;;28.99;49.17
5952;BME280;3001;42.622;23.194;2023-08-20T09:03:45;91703.56;;;29.05;49.51
5952;BME280;3001;42.622;23.194;2023-08-20T09:06:12;91708.25;;;28.98;48.71
5952;BME280;3001;42.622;23.194;2023-08-20T09:08:39;91722.81;;;29.23;48.74
5952;BME280;3001;42.622;23.194;2023-08-20T09:11:05;91709.53;;;29.16;47.75
5952;BME280;3001;42.622;23.194;2023-08-20T09:13:35;91710.28;;;29.17;49.77
5952;BME280;3001;42.622;23.194;2023-08-20T09:16:03;91700.91;;;29.32;50.40
5952;BME280;3001;42.622;23.194;2023-08-20T09:18:31;91706.06;;;29.19;49.31
5952;BME280;3001;42.622;23.194;2023-08-20T09:20:58;91705.91;;;29.30;49.60
5952;BME280;3001;42.622;23.194;2023-08-20T09:23:28;91715.13;;;29.25;49.02
5952;BME280;3001;42.622;23.194;2023-08-20T09:25:55;91707.56;;;29.20;50.26
5952;BME280;3001;42.622;23.194;2023-08-20T09:28:21;91704.13;;;29.20;48.97
5952;BME280;3001;42.622;23.194;2023-08-20T09:30:56;91705.66;;;29.21;47.71
5952;BME280;3001;42.622;23.194;2023-08-20T09:33:23;91694.50;;;29.26;48.57
5952;BME280;3001;42.622;23.194;2023-08-20T09:35:51;91694.16;;;29.73;47.09
5952;BME280;3001;42.622;23.194;2023-08-20T09:38:19;91699.03;;;30.01;46.34
5952;BME280;3001;42.622;23.194;2023-08-20T09:40:47;91696.69;;;30.26;45.05
5952;BME280;3001;42.622;23.194;2023-08-20T09:43:16;91700.75;;;30.57;44.42
5952;BME280;3001;42.622;23.194;2023-08-20T09:45:43;91705.56;;;30.65;42.88
5952;BME280;3001;42.622;23.194;2023-08-20T09:48:13;91698.25;;;30.85;42.44
5952;BME280;3001;42.622;23.194;2023-08-20T09:50:43;91705.72;;;30.94;43.23
5952;BME280;3001;42.622;23.194;2023-08-20T09:53:19;91690.88;;;31.25;42.40
5952;BME280;3001;42.622;23.194;2023-08-20T09:55:50;91698.06;;;31.47;41.60
5952;BME280;3001;42.622;23.194;2023-08-20T09:58:18;91703.13;;;31.77;41.07
5952;BME280;3001;42.622;23.194;2023-08-20T10:00:51;91703.72;;;31.69;41.07
5952;BME280;3001;42.622;23.194;2023-08-20T10:03:21;91695.13;;;31.90;40.79
5952;BME280;3001;42.622;23.194;2023-08-20T10:05:48;91697.09;;;31.89;39.27
5952;BME280;3001;42.622;23.194;2023-08-20T10:08:16;91698.75;;;31.99;38.45
5952;BME280;3001;42.622;23.194;2023-08-20T10:10:44;91711.75;;;32.17;38.18
5952;BME280;3001;42.622;23.194;2023-08-20T10:13:13;91704.09;;;32.31;37.56
5952;BME280;3001;42.622;23.194;2023-08-20T10:15:39;91715.28;;;32.58;36.27
5952;BME280;3001;42.622;23.194;2023-08-20T10:18:08;91702.88;;;32.48;36.17
5952;BME280;3001;42.622;23.194;2023-08-20T10:20:38;91702.50;;;32.90;36.99
5952;BME280;3001;42.622;23.194;2023-08-20T10:23:05;91705.81;;;32.66;35.73
5952;BME280;3001;42.622;23.194;2023-08-20T10:25:40;91705.81;;;32.94;37.21
5952;BME280;3001;42.622;23.194;2023-08-20T10:28:12;91706.13;;;33.25;35.06
5952;BME280;3001;42.622;23.194;2023-08-20T10:31:06;91701.38;;;33.29;35.52
5952;BME280;3001;42.622;23.194;2023-08-20T10:33:37;91687.38;;;33.59;36.39
5952;BME280;3001;42.622;23.194;2023-08-20T10:36:10;91689.53;;;33.51;35.93
5952;BME280;3001;42.622;23.194;2023-08-20T10:38:37;91692.00;;;33.58;34.73
5952;BME280;3001;42.622;23.194;2023-08-20T10:41:06;91697.50;;;33.67;33.30
5952;BME280;3001;42.622;23.194;2023-08-20T10:43:34;91699.56;;;33.63;32.85
5952;BME280;3001;42.622;23.194;2023-08-20T10:46:06;91708.53;;;33.60;30.68
5952;BME280;3001;42.622;23.194;2023-08-20T10:48:33;91697.84;;;33.82;32.40
5952;BME280;3001;42.622;23.194;2023-08-20T10:51:06;91706.81;;;33.79;32.58
5952;BME280;3001;42.622;23.194;2023-08-20T10:53:35;91698.94;;;33.84;34.07
5952;BME280;3001;42.622;23.194;2023-08-20T10:56:12;91687.00;;;34.07;32.33
5952;BME280;3001;42.622;23.194;2023-08-20T10:58:44;91697.75;;;33.73;33.61
5952;BME280;3001;42.622;23.194;2023-08-20T11:01:21;91696.09;;;33.88;32.20
5952;BME280;3001;42.622;23.194;2023-08-20T11:03:50;91699.88;;;33.90;33.20
5952;BME280;3001;42.622;23.194;2023-08-20T11:06:18;91704.47;;;34.27;31.01
5952;BME280;3001;42.622;23.194;2023-08-20T11:08:46;91704.31;;;34.31;31.94
5952;BME280;3001;42.622;23.194;2023-08-20T11:11:13;91697.88;;;34.16;32.14
5952;BME280;3001;42.622;23.194;2023-08-20T11:13:40;91689.06;;;34.49;32.34
5952;BME280;3001;42.622;23.194;2023-08-20T11:16:08;91690.31;;;34.57;32.21
5952;BME280;3001;42.622;23.194;2023-08-20T11:18:35;91696.06;;;34.46;33.67
5952;BME280;3001;42.622;23.194;2023-08-20T11:21:02;91681.03;;;34.58;32.50
5952;BME280;3001;42.622;23.194;2023-08-20T11:23:29;91684.44;;;34.71;32.13
5952;BME280;3001;42.622;23.194;2023-08-20T11:25:58;91687.19;;;34.58;32.53
5952;BME280;3001;42.622;23.194;2023-08-20T11:28:26;91684.13;;;34.69;33.53
5952;BME280;3001;42.622;23.194;2023-08-20T11:30:53;91689.09;;;34.70;33.56
5952;BME280;3001;42.622;23.194;2023-08-20T11:33:21;91677.00;;;35.05;32.52
5952;BME280;3001;42.622;23.194;2023-08-20T11:35:48;91681.97;;;35.28;32.59
5952;BME280;3001;42.622;23.194;2023-08-20T11:38:14;91671.56;;;35.18;32.69
5952;BME280;3001;42.622;23.194;2023-08-20T11:40:41;91671.13;;;35.19;32.87
5952;BME280;3001;42.622;23.194;2023-08-20T11:43:09;91684.75;;;35.46;31.65
5952;BME280;3001;42.622;23.194;2023-08-20T11:45:44;91686.06;;;35.42;30.68
5952;BME280;3001;42.622;23.194;2023-08-20T11:48:11;91670.91;;;35.14;32.66
5952;BME280;3001;42.622;23.194;2023-08-20T11:50:38;91687.03;;;35.17;31.24
5952;BME280;3001;42.622;23.194;2023-08-20T11:53:06;91671.31;;;35.03;32.80
5952;BME280;3001;42.622;23.194;2023-08-20T11:55:33;91684.06;;;35.33;31.84
5952;BME280;3001;42.622;23.194;2023-08-20T11:58:00;91670.66;;;35.21;31.51
5952;BME280;3001;42.622;23.194;2023-08-20T12:00:30;91678.75;;;35.21;31.84
5952;BME280;3001;42.622;23.194;2023-08-20T12:02:58;91676.91;;;35.39;32.21
5952;BME280;3001;42.622;23.194;2023-08-20T12:05:26;91675.63;;;35.22;31.96
5952;BME280;3001;42.622;23.194;2023-08-20T12:07:57;91672.94;;;35.22;31.89
5952;BME280;3001;42.622;23.194;2023-08-20T12:10:25;91676.69;;;35.55;31.89
5952;BME280;3001;42.622;23.194;2023-08-20T12:12:52;91671.63;;;35.36;32.35
5952;BME280;3001;42.622;23.194;2023-08-20T12:15:19;91670.44;;;35.67;33.06
5952;BME280;3001;42.622;23.194;2023-08-20T12:17:57;91661.06;;;35.59;31.38
5952;BME280;3001;42.622;23.194;2023-08-20T12:20:27;91656.41;;;35.60;32.57
5952;BME280;3001;42.622;23.194;2023-08-20T12:22:54;91666.34;;;35.63;32.15
5952;BME280;3001;42.622;23.194;2023-08-20T12:25:20;91667.78;;;35.76;32.23
5952;BME280;3001;42.622;23.194;2023-08-20T12:27:47;91657.09;;;35.12;33.08
5952;BME280;3001;42.622;23.194;2023-08-20T12:30:14;91661.91;;;35.78;32.36
5952;BME280;3001;42.622;23.194;2023-08-20T12:32:40;91656.69;;;36.01;32.30
5952;BME280;3001;42.622;23.194;2023-08-20T12:35:08;91637.50;;;36.17;31.96
5952;BME280;3001;42.622;23.194;2023-08-20T12:37:35;91657.66;;;36.16;32.29
5952;BME280;3001;42.622;23.194;2023-08-20T12:40:02;91653.69;;;35.99;32.04
5952;BME280;3001;42.622;23.194;2023-08-20T12:42:33;91649.66;;;36.22;30.37
5952;BME280;3001;42.622;23.194;2023-08-20T12:44:59;91654.50;;;36.35;31.41
5952;BME280;3001;42.622;23.194;2023-08-20T12:47:26;91651.78;;;36.18;32.02
5952;BME280;3001;42.622;23.194;2023-08-20T12:49:53;91651.13;;;36.05;31.10
5952;BME280;3001;42.622;23.194;2023-08-20T12:52:21;91660.00;;;35.96;31.51
5952;BME280;3001;42.622;23.194;2023-08-20T12:54:47;91654.66;;;36.41;30.83
5952;BME280;3001;42.622;23.194;2023-08-20T12:57:14;91655.84;;;36.31;31.71
5952;BME280;3001;42.622;23.194;2023-08-20T12:59:41;91641.13;;;36.23;32.38
5952;BME280;3001;42.622;23.194;2023-08-20T13:02:08;91646.69;;;36.29;30.28
5952;BME280;3001;42.622;23.194;2023-08-20T13:04:35;91644.72;;;36.20;30.57
5952;BME280;3001;42.622;23.194;2023-08-20T13:07:03;91648.63;;;36.46;30.60
5952;BME280;3001;42.622;23.194;2023-08-20T13:09:32;91633.75;;;36.15;31.75
5952;BME280;3001;42.622;23.194;2023-08-20T13:12:01;91647.88;;;36.45;31.83